Аэропорт: Шереметьево. Москва

ICAO: UUEE

METAR:
2018/05/20 23:00
UUEE 202300Z 03002MPS CAVOK 06/03 Q1024 R06R/150062 NOSIG
METAR:
2018/05/20 21:25
TAF UUEE 201950Z 2021/2121 01003MPS 6000 SCT030 TX18/2112Z TN07/2103Z